Terminal Aerodrome Forecast
Issued by NWS Omaha/Valley, NE

Home | Current Version | Previous Version | Graphics & Text | Print | Product List | Glossary On
Versions: 1 2 3 4 5 6 7 8 9 10 11 12 13 14 15 16 17 18 19 20 21 22 23 24 25 26 27 28 29 30 31 32 33 34 35 36 37
772
FTUS43 KOAX 111736
TAFOFK
TAF
KOFK 111736Z 1118/1218 16011KT 6SM -SN BR OVC015
      TEMPO 1118/1122 15007KT 1 1/2SM -SN BR OVC007
     FM112200 16008KT 2SM BR OVC007
     FM120200 35006KT 6SM BR OVC015
     FM120600 34010KT P6SM OVC015=

USA.gov is the U.S. government's official web portal to all federal, state and local government web resources and services.